createdAt,value
2023-03-12T00:00:10.669Z,11.03
2023-03-12T00:02:38.107Z,12.20
2023-03-12T00:05:05.990Z,12.73
2023-03-12T00:07:33.264Z,9.70
2023-03-12T00:10:00.449Z,18.50
2023-03-12T00:12:27.851Z,9.20
2023-03-12T00:14:55.035Z,13.60
2023-03-12T00:17:22.281Z,14.07
2023-03-12T00:19:53.987Z,11.13
2023-03-12T00:22:25.767Z,12.10
2023-03-12T00:24:58.141Z,12.73
2023-03-12T00:27:26.391Z,9.70
2023-03-12T00:29:53.922Z,9.33
2023-03-12T00:32:21.470Z,10.93
2023-03-12T00:34:55.133Z,10.37
2023-03-12T00:37:23.022Z,10.67
2023-03-12T00:39:50.657Z,9.87
2023-03-12T00:42:18.364Z,11.47
2023-03-12T00:44:46.088Z,10.17
2023-03-12T00:47:14.260Z,10.13
2023-03-12T00:49:41.781Z,11.50
2023-03-12T00:52:09.310Z,11.33
2023-03-12T00:54:37.000Z,11.63
2023-03-12T00:57:04.615Z,9.90
2023-03-12T00:59:32.841Z,12.60
2023-03-12T01:02:00.048Z,9.97
2023-03-12T01:04:27.509Z,9.80
2023-03-12T01:06:55.890Z,11.40
2023-03-12T01:09:23.400Z,13.63
2023-03-12T01:11:52.056Z,10.67
2023-03-12T01:14:19.358Z,10.50
2023-03-12T01:16:47.545Z,10.90
2023-03-12T01:19:14.902Z,10.30
2023-03-12T01:21:42.199Z,9.77
2023-03-12T01:24:10.019Z,11.10
2023-03-12T01:26:37.347Z,9.73
2023-03-12T01:29:04.738Z,10.53
2023-03-12T01:31:32.218Z,12.40
2023-03-12T01:33:59.792Z,14.90
2023-03-12T01:36:29.818Z,8.87
2023-03-12T01:38:59.753Z,9.53
2023-03-12T01:41:32.116Z,9.68
2023-03-12T01:44:03.686Z,11.93
2023-03-12T01:46:38.405Z,13.77
2023-03-12T01:49:13.418Z,11.83
2023-03-12T01:52:03.539Z,9.07
2023-03-12T01:54:44.989Z,12.57
2023-03-12T01:57:17.282Z,16.50
2023-03-12T01:59:56.085Z,13.97
2023-03-12T02:02:27.233Z,14.00
2023-03-12T02:05:08.704Z,12.57
2023-03-12T02:07:36.154Z,12.97
2023-03-12T02:10:05.604Z,11.27
2023-03-12T02:12:33.055Z,13.57
2023-03-12T02:15:00.356Z,13.60
2023-03-12T02:17:27.776Z,12.93
2023-03-12T02:20:17.518Z,14.37
2023-03-12T02:22:52.867Z,13.77
2023-03-12T02:25:44.173Z,10.53
2023-03-12T02:28:15.950Z,8.60
2023-03-12T02:30:49.899Z,13.23
2023-03-12T02:33:17.511Z,14.93
2023-03-12T02:35:47.671Z,12.93
2023-03-12T02:38:34.834Z,12.52
2023-03-12T02:41:19.279Z,13.30
2023-03-12T02:43:58.494Z,15.60
2023-03-12T02:46:26.859Z,12.07
2023-03-12T02:48:55.310Z,12.70
2023-03-12T02:51:22.598Z,13.40
2023-03-12T02:53:54.793Z,11.33
2023-03-12T02:56:27.898Z,13.93
2023-03-12T02:58:55.170Z,11.67
2023-03-12T03:01:24.223Z,18.60
2023-03-12T03:03:51.651Z,15.63
2023-03-12T03:06:18.910Z,12.73
2023-03-12T03:08:46.733Z,15.53
2023-03-12T03:11:14.523Z,15.70
2023-03-12T03:13:41.702Z,9.53
2023-03-12T03:16:09.845Z,11.27
2023-03-12T03:18:37.172Z,8.87
2023-03-12T03:21:07.834Z,10.63
2023-03-12T03:23:37.228Z,10.37
2023-03-12T03:26:05.414Z,7.60
2023-03-12T03:28:32.662Z,11.40
2023-03-12T03:31:02.101Z,9.30
2023-03-12T03:33:36.114Z,9.30
2023-03-12T03:36:06.167Z,9.43
2023-03-12T03:38:37.045Z,8.43
2023-03-12T03:41:05.022Z,7.60
2023-03-12T03:43:35.197Z,10.30
2023-03-12T03:46:05.876Z,7.37
2023-03-12T03:48:36.939Z,9.80
2023-03-12T03:51:07.556Z,13.50
2023-03-12T03:53:36.609Z,11.23
2023-03-12T03:56:14.350Z,11.10
2023-03-12T03:58:46.476Z,7.33
2023-03-12T04:01:16.080Z,10.13
2023-03-12T04:03:45.060Z,9.90
2023-03-12T04:06:13.191Z,9.10
2023-03-12T04:08:41.048Z,11.17
2023-03-12T04:11:18.259Z,9.00
2023-03-12T04:13:46.812Z,10.40
2023-03-12T04:16:16.901Z,8.75
2023-03-12T04:18:45.393Z,14.63
2023-03-12T04:21:14.609Z,14.83
2023-03-12T04:23:43.030Z,16.03
2023-03-12T04:26:12.287Z,15.20
2023-03-12T04:28:40.014Z,19.63
2023-03-12T04:31:10.478Z,10.70
2023-03-12T04:33:46.253Z,17.27
2023-03-12T04:36:16.234Z,14.50
2023-03-12T04:38:45.740Z,13.57
2023-03-12T04:41:17.293Z,14.10
2023-03-12T04:43:49.370Z,15.97
2023-03-12T04:46:18.658Z,17.87
2023-03-12T04:48:45.890Z,14.93
2023-03-12T04:51:14.373Z,11.17
2023-03-12T04:53:41.941Z,17.57
2023-03-12T04:56:10.940Z,14.70
2023-03-12T04:58:39.337Z,18.00
2023-03-12T05:01:07.135Z,15.10
2023-03-12T05:03:35.212Z,17.63
2023-03-12T05:06:02.632Z,21.47
2023-03-12T05:08:30.262Z,21.77
2023-03-12T05:10:57.604Z,17.97
2023-03-12T05:13:26.410Z,17.37
2023-03-12T05:15:56.921Z,17.02
2023-03-12T05:18:26.553Z,15.57
2023-03-12T05:23:44.555Z,12.40
2023-03-12T05:26:27.458Z,11.93
2023-03-12T05:29:02.341Z,10.73
2023-03-12T05:31:33.192Z,10.77
2023-03-12T05:34:03.062Z,7.37
2023-03-12T05:36:31.472Z,7.43
2023-03-12T05:39:00.025Z,10.10
2023-03-12T05:41:30.783Z,10.55
2023-03-12T05:44:04.305Z,27.37
2023-03-12T05:46:31.926Z,9.00
2023-03-12T05:49:00.371Z,10.97
2023-03-12T05:51:28.061Z,12.87
2023-03-12T05:53:55.334Z,10.07
2023-03-12T05:56:22.714Z,10.27
2023-03-12T05:58:50.141Z,11.20
2023-03-12T06:01:28.680Z,15.53
2023-03-12T06:03:58.217Z,11.40
2023-03-12T06:06:26.451Z,10.23
2023-03-12T06:08:54.555Z,11.03
2023-03-12T06:11:21.864Z,7.47
2023-03-12T06:13:49.084Z,6.70
2023-03-12T06:16:23.208Z,7.07
2023-03-12T06:18:54.879Z,5.97
2023-03-12T06:21:27.114Z,6.60
2023-03-12T06:23:55.012Z,9.65
2023-03-12T06:26:28.386Z,8.23
2023-03-12T06:28:55.825Z,9.10
2023-03-12T06:31:24.394Z,6.40
2023-03-12T06:33:53.807Z,6.40
2023-03-12T06:36:21.504Z,8.32
2023-03-12T06:38:48.906Z,6.93
2023-03-12T06:41:19.277Z,6.28
2023-03-12T06:43:47.595Z,6.40
2023-03-12T06:46:18.589Z,3.97
2023-03-12T06:48:46.651Z,5.85
2023-03-12T06:51:17.257Z,4.32
2023-03-12T06:53:45.983Z,4.57
2023-03-12T06:56:13.983Z,9.65
2023-03-12T06:58:42.035Z,7.97
2023-03-12T07:01:09.796Z,6.25
2023-03-12T07:03:37.486Z,9.23
2023-03-12T07:06:05.711Z,6.47
2023-03-12T07:08:33.267Z,15.25
2023-03-12T07:11:01.960Z,35.60
2023-03-12T07:13:30.429Z,18.08
2023-03-12T07:15:58.163Z,30.65
2023-03-12T07:18:25.682Z,133.98
2023-03-12T07:20:54.252Z,168.02
2023-03-12T07:23:22.322Z,190.52
2023-03-12T07:25:50.477Z,79.78
2023-03-12T07:28:19.241Z,161.95
2023-03-12T07:30:50.688Z,47.85
2023-03-12T07:33:21.846Z,26.25
2023-03-12T07:35:51.659Z,32.17
2023-03-12T07:38:19.516Z,57.50
2023-03-12T07:40:55.961Z,19.65
2023-03-12T07:43:25.220Z,32.90
2023-03-12T07:45:55.160Z,54.75
2023-03-12T07:48:22.470Z,15.77
2023-03-12T07:50:49.756Z,33.25
2023-03-12T07:53:17.564Z,31.85
2023-03-12T07:55:46.883Z,46.40
2023-03-12T07:58:16.613Z,35.67
2023-03-12T08:00:45.044Z,14.47
2023-03-12T08:03:13.793Z,9.02
2023-03-12T08:05:41.705Z,33.72
2023-03-12T08:08:09.803Z,18.48
2023-03-12T08:10:37.595Z,7.32
2023-03-12T08:13:05.003Z,5.72
2023-03-12T08:15:33.562Z,9.25
2023-03-12T08:18:01.587Z,19.23
2023-03-12T08:20:29.052Z,4.63
2023-03-12T08:22:56.264Z,4.20
2023-03-12T08:25:24.911Z,6.15
2023-03-12T08:27:52.453Z,8.90
2023-03-12T08:30:19.822Z,6.93
2023-03-12T08:32:47.286Z,8.00
2023-03-12T08:35:14.578Z,12.40
2023-03-12T08:37:41.960Z,4.15
2023-03-12T08:40:15.880Z,5.30
2023-03-12T08:42:45.013Z,5.93
2023-03-12T08:45:13.599Z,6.13
2023-03-12T08:47:42.900Z,8.77
2023-03-12T08:50:13.028Z,7.60
2023-03-12T08:52:40.434Z,5.45
2023-03-12T08:55:08.363Z,5.72
2023-03-12T08:57:35.808Z,4.38
2023-03-12T09:00:06.074Z,5.43
2023-03-12T09:02:33.662Z,5.97
2023-03-12T09:05:00.879Z,3.13
2023-03-12T09:07:28.404Z,5.22
2023-03-12T09:09:56.017Z,5.35
2023-03-12T09:12:24.274Z,5.10
2023-03-12T09:15:03.863Z,5.75
2023-03-12T09:17:32.372Z,3.58
2023-03-12T09:20:00.260Z,3.80
2023-03-12T09:22:30.665Z,4.30
2023-03-12T09:24:58.011Z,3.42
2023-03-12T09:27:25.340Z,4.45
2023-03-12T09:30:00.723Z,4.18
2023-03-12T09:32:29.583Z,8.60
2023-03-12T09:34:57.134Z,4.05
2023-03-12T09:37:24.679Z,4.55
2023-03-12T09:39:53.211Z,3.38
2023-03-12T09:42:47.579Z,3.03
2023-03-12T09:45:26.600Z,2.72
2023-03-12T09:47:58.587Z,3.70
2023-03-12T09:50:40.734Z,5.13
2023-03-12T09:53:21.332Z,2.75
2023-03-12T09:55:52.636Z,2.15
2023-03-12T09:58:33.684Z,3.95
2023-03-12T10:01:24.080Z,3.05
2023-03-12T10:06:56.155Z,2.60
2023-03-12T10:09:32.671Z,2.80
2023-03-12T10:12:35.718Z,2.42
2023-03-12T10:15:47.472Z,3.05
2023-03-12T10:18:21.293Z,2.53
2023-03-12T10:21:12.149Z,4.95
2023-03-12T10:23:47.518Z,4.47
2023-03-12T10:26:44.101Z,15.95
2023-03-12T10:29:19.513Z,3.65
2023-03-12T10:31:58.725Z,3.38
2023-03-12T10:34:49.152Z,4.05
2023-03-12T10:37:26.898Z,2.08
2023-03-12T10:40:01.011Z,2.58
2023-03-12T10:42:30.641Z,7.13
2023-03-12T10:45:11.055Z,4.70
2023-03-12T10:47:39.128Z,2.50
2023-03-12T10:50:20.325Z,2.50
2023-03-12T10:52:50.737Z,12.80
2023-03-12T10:55:24.708Z,3.75
2023-03-12T10:57:53.175Z,25.75
2023-03-12T11:00:27.271Z,2.88
2023-03-12T11:03:05.514Z,29.42
2023-03-12T11:05:37.246Z,22.33
2023-03-12T11:08:20.541Z,2.63
2023-03-12T11:10:48.318Z,1.98
2023-03-12T11:13:30.291Z,4.00
2023-03-12T11:16:17.655Z,3.78
2023-03-12T11:19:01.386Z,3.70
2023-03-12T11:21:31.657Z,4.25
2023-03-12T11:23:58.739Z,7.10
2023-03-12T11:26:35.171Z,3.45
2023-03-12T11:29:40.107Z,3.00
2023-03-12T11:32:34.645Z,2.53
2023-03-12T11:35:02.105Z,4.93
2023-03-12T11:37:59.923Z,3.15
2023-03-12T11:40:59.940Z,4.32
2023-03-12T11:43:58.592Z,1.35
2023-03-12T11:46:28.476Z,4.72
2023-03-12T11:49:09.026Z,5.45
2023-03-12T11:51:51.246Z,3.72
2023-03-12T11:54:58.054Z,2.95
2023-03-12T11:57:49.898Z,3.60
2023-03-12T12:00:21.173Z,2.63
2023-03-12T12:03:17.817Z,3.13
2023-03-12T12:06:37.017Z,4.10
2023-03-12T12:09:40.609Z,7.70
2023-03-12T12:12:31.467Z,4.40
2023-03-12T12:15:39.064Z,5.57
2023-03-12T12:18:42.851Z,7.70
2023-03-12T12:21:51.462Z,5.03
2023-03-12T12:24:34.702Z,3.90
2023-03-12T12:27:18.922Z,3.47
2023-03-12T12:30:04.679Z,3.45
2023-03-12T12:32:55.615Z,4.15
2023-03-12T12:35:26.487Z,4.28
2023-03-12T12:38:38.104Z,4.35
2023-03-12T12:41:40.672Z,4.25
2023-03-12T12:44:18.092Z,4.68
2023-03-12T12:47:03.842Z,3.65
2023-03-12T12:49:49.016Z,4.80
2023-03-12T12:52:20.243Z,4.07
2023-03-12T12:55:06.769Z,3.88
2023-03-12T12:57:48.485Z,8.43
2023-03-12T13:00:42.288Z,5.43
2023-03-12T13:03:25.034Z,2.97
2023-03-12T13:06:03.611Z,3.65
2023-03-12T13:08:34.408Z,3.85
2023-03-12T13:11:20.323Z,4.07
2023-03-12T13:14:03.651Z,3.35
2023-03-12T13:16:39.358Z,5.70
2023-03-12T13:19:15.341Z,6.10
2023-03-12T13:22:15.559Z,5.20
2023-03-12T13:25:41.806Z,6.20
2023-03-12T13:29:11.421Z,3.58
2023-03-12T13:34:18.136Z,2.25
2023-03-12T13:36:52.477Z,2.35
2023-03-12T13:39:35.292Z,1.80
2023-03-12T13:42:34.790Z,3.35
2023-03-12T13:45:25.203Z,2.33
2023-03-12T13:47:58.403Z,2.45
2023-03-12T13:50:26.796Z,2.33
2023-03-12T13:53:14.997Z,2.97
2023-03-12T13:55:43.855Z,2.78
2023-03-12T13:58:23.616Z,3.75
2023-03-12T14:01:04.736Z,2.93
2023-03-12T14:03:40.688Z,5.65
2023-03-12T14:06:17.834Z,3.45
2023-03-12T14:09:08.366Z,3.40
2023-03-12T14:12:14.370Z,4.28
2023-03-12T14:15:03.134Z,7.30
2023-03-12T14:17:33.373Z,4.72
2023-03-12T14:20:07.514Z,5.18
2023-03-12T14:22:38.296Z,3.78
